sensor_id;sensor_type;location;lat;lon;timestamp;temperature;humidity
19920;DHT22;10122;50.074;19.920;2023-02-11T00:01:33;2.20;99.90
19920;DHT22;10122;50.074;19.920;2023-02-11T00:04:00;2.10;99.90
19920;DHT22;10122;50.074;19.920;2023-02-11T00:06:27;2.10;99.90
19920;DHT22;10122;50.074;19.920;2023-02-11T00:08:54;2.00;99.90
19920;DHT22;10122;50.074;19.920;2023-02-11T00:11:21;1.90;99.90
19920;DHT22;10122;50.074;19.920;2023-02-11T00:13:47;1.90;99.90
19920;DHT22;10122;50.074;19.920;2023-02-11T00:16:19;1.90;99.90
19920;DHT22;10122;50.074;19.920;2023-02-11T00:18:45;1.80;99.90
19920;DHT22;10122;50.074;19.920;2023-02-11T00:21:16;1.90;99.90
19920;DHT22;10122;50.074;19.920;2023-02-11T00:23:43;1.80;99.90
19920;DHT22;10122;50.074;19.920;2023-02-11T00:26:17;1.80;99.90
19920;DHT22;10122;50.074;19.920;2023-02-11T00:28:43;1.80;99.90
19920;DHT22;10122;50.074;19.920;2023-02-11T00:31:09;1.80;99.90
19920;DHT22;10122;50.074;19.920;2023-02-11T00:33:35;1.80;99.90
19920;DHT22;10122;50.074;19.920;2023-02-11T00:36:05;1.80;99.90
19920;DHT22;10122;50.074;19.920;2023-02-11T00:38:32;1.80;99.90
19920;DHT22;10122;50.074;19.920;2023-02-11T00:40:57;1.70;99.90
19920;DHT22;10122;50.074;19.920;2023-02-11T00:43:24;1.60;99.90
19920;DHT22;10122;50.074;19.920;2023-02-11T00:45:49;1.60;99.90
19920;DHT22;10122;50.074;19.920;2023-02-11T00:48:15;1.50;99.90
19920;DHT22;10122;50.074;19.920;2023-02-11T00:50:41;1.40;99.90
19920;DHT22;10122;50.074;19.920;2023-02-11T00:53:07;1.40;99.90
19920;DHT22;10122;50.074;19.920;2023-02-11T00:55:33;1.30;99.90
19920;DHT22;10122;50.074;19.920;2023-02-11T00:57:59;1.30;99.90
19920;DHT22;10122;50.074;19.920;2023-02-11T01:00:25;1.20;99.90
19920;DHT22;10122;50.074;19.920;2023-02-11T01:02:51;1.20;99.90
19920;DHT22;10122;50.074;19.920;2023-02-11T01:05:17;1.20;99.90
19920;DHT22;10122;50.074;19.920;2023-02-11T01:07:43;1.30;99.90
19920;DHT22;10122;50.074;19.920;2023-02-11T01:10:09;1.30;99.90
19920;DHT22;10122;50.074;19.920;2023-02-11T01:12:35;1.30;99.90
19920;DHT22;10122;50.074;19.920;2023-02-11T01:15:01;1.30;99.90
19920;DHT22;10122;50.074;19.920;2023-02-11T01:17:27;1.20;99.90
19920;DHT22;10122;50.074;19.920;2023-02-11T01:19:52;1.30;99.90
19920;DHT22;10122;50.074;19.920;2023-02-11T01:22:18;1.30;99.90
19920;DHT22;10122;50.074;19.920;2023-02-11T01:24:44;1.30;99.90
19920;DHT22;10122;50.074;19.920;2023-02-11T01:27:10;1.30;99.90
19920;DHT22;10122;50.074;19.920;2023-02-11T01:29:35;1.30;99.90
19920;DHT22;10122;50.074;19.920;2023-02-11T01:32:01;1.30;99.90
19920;DHT22;10122;50.074;19.920;2023-02-11T01:34:27;1.30;99.90
19920;DHT22;10122;50.074;19.920;2023-02-11T01:36:59;1.20;99.90
19920;DHT22;10122;50.074;19.920;2023-02-11T01:39:25;1.10;99.90
19920;DHT22;10122;50.074;19.920;2023-02-11T01:41:52;1.10;99.90
19920;DHT22;10122;50.074;19.920;2023-02-11T01:44:32;1.10;99.90
19920;DHT22;10122;50.074;19.920;2023-02-11T01:46:58;1.10;99.90
19920;DHT22;10122;50.074;19.920;2023-02-11T01:49:27;1.00;99.90
19920;DHT22;10122;50.074;19.920;2023-02-11T01:51:59;1.00;99.90
19920;DHT22;10122;50.074;19.920;2023-02-11T01:54:32;0.90;99.90
19920;DHT22;10122;50.074;19.920;2023-02-11T01:57:21;0.90;99.90
19920;DHT22;10122;50.074;19.920;2023-02-11T02:00:10;0.90;99.90
19920;DHT22;10122;50.074;19.920;2023-02-11T02:06:09;0.90;99.90
19920;DHT22;10122;50.074;19.920;2023-02-11T02:11:14;1.10;99.90
19920;DHT22;10122;50.074;19.920;2023-02-11T02:13:40;1.20;99.90
19920;DHT22;10122;50.074;19.920;2023-02-11T02:16:11;1.20;99.90
19920;DHT22;10122;50.074;19.920;2023-02-11T02:40:52;1.00;99.90
19920;DHT22;10122;50.074;19.920;2023-02-11T02:43:20;1.00;99.90
19920;DHT22;10122;50.074;19.920;2023-02-11T02:45:47;1.00;99.90
19920;DHT22;10122;50.074;19.920;2023-02-11T02:57:08;1.00;99.90
19920;DHT22;10122;50.074;19.920;2023-02-11T03:02:24;1.00;99.90
19920;DHT22;10122;50.074;19.920;2023-02-11T03:07:42;1.00;99.90
19920;DHT22;10122;50.074;19.920;2023-02-11T03:10:29;1.00;99.90
19920;DHT22;10122;50.074;19.920;2023-02-11T03:12:56;1.00;99.90
19920;DHT22;10122;50.074;19.920;2023-02-11T03:15:26;1.10;99.90
19920;DHT22;10122;50.074;19.920;2023-02-11T03:17:55;1.20;99.90
19920;DHT22;10122;50.074;19.920;2023-02-11T03:20:23;1.30;99.90
19920;DHT22;10122;50.074;19.920;2023-02-11T03:22:51;1.30;99.90
19920;DHT22;10122;50.074;19.920;2023-02-11T03:25:24;1.40;99.90
19920;DHT22;10122;50.074;19.920;2023-02-11T03:28:27;1.50;99.90
19920;DHT22;10122;50.074;19.920;2023-02-11T03:36:22;1.50;99.90
19920;DHT22;10122;50.074;19.920;2023-02-11T03:38:51;1.50;99.90
19920;DHT22;10122;50.074;19.920;2023-02-11T03:41:20;1.50;99.90
19920;DHT22;10122;50.074;19.920;2023-02-11T03:43:50;1.50;99.90
19920;DHT22;10122;50.074;19.920;2023-02-11T03:46:20;1.50;99.90
19920;DHT22;10122;50.074;19.920;2023-02-11T03:48:51;1.50;99.90
19920;DHT22;10122;50.074;19.920;2023-02-11T03:51:19;1.50;99.90
19920;DHT22;10122;50.074;19.920;2023-02-11T03:53:45;1.50;99.90
19920;DHT22;10122;50.074;19.920;2023-02-11T03:56:19;1.40;99.90
19920;DHT22;10122;50.074;19.920;2023-02-11T03:58:47;1.40;99.90
19920;DHT22;10122;50.074;19.920;2023-02-11T04:01:13;1.50;99.90
19920;DHT22;10122;50.074;19.920;2023-02-11T04:03:40;1.50;99.90
19920;DHT22;10122;50.074;19.920;2023-02-11T04:06:05;1.50;99.90
19920;DHT22;10122;50.074;19.920;2023-02-11T04:08:31;1.60;99.90
19920;DHT22;10122;50.074;19.920;2023-02-11T04:10:58;1.60;99.90
19920;DHT22;10122;50.074;19.920;2023-02-11T04:13:23;1.50;99.90
19920;DHT22;10122;50.074;19.920;2023-02-11T04:15:49;1.40;99.90
19920;DHT22;10122;50.074;19.920;2023-02-11T04:18:15;1.30;99.90
19920;DHT22;10122;50.074;19.920;2023-02-11T04:20:41;1.30;99.90
19920;DHT22;10122;50.074;19.920;2023-02-11T04:23:07;1.20;99.90
19920;DHT22;10122;50.074;19.920;2023-02-11T04:25:32;1.20;99.90
19920;DHT22;10122;50.074;19.920;2023-02-11T04:27:58;1.20;99.90
19920;DHT22;10122;50.074;19.920;2023-02-11T04:30:24;1.20;99.90
19920;DHT22;10122;50.074;19.920;2023-02-11T04:32:49;1.20;99.90
19920;DHT22;10122;50.074;19.920;2023-02-11T04:35:15;1.20;99.90
19920;DHT22;10122;50.074;19.920;2023-02-11T04:37:41;1.10;99.90
19920;DHT22;10122;50.074;19.920;2023-02-11T04:40:07;1.10;99.90
19920;DHT22;10122;50.074;19.920;2023-02-11T04:42:33;1.10;99.90
19920;DHT22;10122;50.074;19.920;2023-02-11T04:44:58;1.10;99.90
19920;DHT22;10122;50.074;19.920;2023-02-11T04:47:24;1.10;99.90
19920;DHT22;10122;50.074;19.920;2023-02-11T04:49:50;1.10;99.90
19920;DHT22;10122;50.074;19.920;2023-02-11T04:52:16;1.10;99.90
19920;DHT22;10122;50.074;19.920;2023-02-11T04:54:41;1.10;99.90
19920;DHT22;10122;50.074;19.920;2023-02-11T04:57:07;1.10;99.90
19920;DHT22;10122;50.074;19.920;2023-02-11T04:59:32;1.10;99.90
19920;DHT22;10122;50.074;19.920;2023-02-11T05:01:58;1.10;99.90
19920;DHT22;10122;50.074;19.920;2023-02-11T05:04:24;1.10;99.90
19920;DHT22;10122;50.074;19.920;2023-02-11T05:06:50;1.20;99.90
19920;DHT22;10122;50.074;19.920;2023-02-11T05:09:15;1.20;99.90
19920;DHT22;10122;50.074;19.920;2023-02-11T05:11:42;1.20;99.90
19920;DHT22;10122;50.074;19.920;2023-02-11T05:14:07;1.30;99.90
19920;DHT22;10122;50.074;19.920;2023-02-11T05:16:33;1.40;99.90
19920;DHT22;10122;50.074;19.920;2023-02-11T05:18:59;1.30;99.90
19920;DHT22;10122;50.074;19.920;2023-02-11T05:21:25;1.30;99.90
19920;DHT22;10122;50.074;19.920;2023-02-11T05:23:51;1.30;99.90
19920;DHT22;10122;50.074;19.920;2023-02-11T05:26:17;1.30;99.90
19920;DHT22;10122;50.074;19.920;2023-02-11T05:28:43;1.20;99.90
19920;DHT22;10122;50.074;19.920;2023-02-11T05:31:10;1.20;99.90
19920;DHT22;10122;50.074;19.920;2023-02-11T05:33:36;1.30;99.90
19920;DHT22;10122;50.074;19.920;2023-02-11T05:36:04;1.30;99.90
19920;DHT22;10122;50.074;19.920;2023-02-11T05:38:31;1.30;99.90
19920;DHT22;10122;50.074;19.920;2023-02-11T05:40:56;1.30;99.90
19920;DHT22;10122;50.074;19.920;2023-02-11T05:43:22;1.30;99.90
19920;DHT22;10122;50.074;19.920;2023-02-11T05:45:48;1.30;99.90
19920;DHT22;10122;50.074;19.920;2023-02-11T05:48:14;1.40;99.90
19920;DHT22;10122;50.074;19.920;2023-02-11T05:50:40;1.50;99.90
19920;DHT22;10122;50.074;19.920;2023-02-11T05:53:06;1.50;99.90
19920;DHT22;10122;50.074;19.920;2023-02-11T05:55:32;1.50;99.90
19920;DHT22;10122;50.074;19.920;2023-02-11T05:57:58;1.50;99.90
19920;DHT22;10122;50.074;19.920;2023-02-11T06:00:24;1.50;99.90
19920;DHT22;10122;50.074;19.920;2023-02-11T06:02:50;1.50;99.90
19920;DHT22;10122;50.074;19.920;2023-02-11T06:05:16;1.50;99.90
19920;DHT22;10122;50.074;19.920;2023-02-11T06:07:42;1.50;99.90
19920;DHT22;10122;50.074;19.920;2023-02-11T06:10:08;1.50;99.90
19920;DHT22;10122;50.074;19.920;2023-02-11T06:12:35;1.40;99.90
19920;DHT22;10122;50.074;19.920;2023-02-11T06:15:01;1.40;99.90
19920;DHT22;10122;50.074;19.920;2023-02-11T06:17:27;1.40;99.90
19920;DHT22;10122;50.074;19.920;2023-02-11T06:19:57;1.50;99.90
19920;DHT22;10122;50.074;19.920;2023-02-11T06:22:23;1.60;99.90
19920;DHT22;10122;50.074;19.920;2023-02-11T06:24:48;1.70;99.90
19920;DHT22;10122;50.074;19.920;2023-02-11T06:27:14;1.80;99.90
19920;DHT22;10122;50.074;19.920;2023-02-11T06:29:40;1.80;99.90
19920;DHT22;10122;50.074;19.920;2023-02-11T06:32:05;1.70;99.90
19920;DHT22;10122;50.074;19.920;2023-02-11T06:34:31;1.80;99.90
19920;DHT22;10122;50.074;19.920;2023-02-11T06:36:57;1.80;99.90
19920;DHT22;10122;50.074;19.920;2023-02-11T06:39:23;1.80;99.90
19920;DHT22;10122;50.074;19.920;2023-02-11T06:41:48;1.80;99.90
19920;DHT22;10122;50.074;19.920;2023-02-11T06:44:14;1.80;99.90
19920;DHT22;10122;50.074;19.920;2023-02-11T06:46:40;1.80;99.90
19920;DHT22;10122;50.074;19.920;2023-02-11T06:49:05;1.80;99.90
19920;DHT22;10122;50.074;19.920;2023-02-11T06:51:31;1.90;99.90
19920;DHT22;10122;50.074;19.920;2023-02-11T06:53:56;1.90;99.90
19920;DHT22;10122;50.074;19.920;2023-02-11T06:56:23;2.00;99.90
19920;DHT22;10122;50.074;19.920;2023-02-11T06:58:53;1.90;99.90
19920;DHT22;10122;50.074;19.920;2023-02-11T07:01:20;2.00;99.90
19920;DHT22;10122;50.074;19.920;2023-02-11T07:03:46;2.00;99.90
19920;DHT22;10122;50.074;19.920;2023-02-11T07:06:15;2.00;99.90
19920;DHT22;10122;50.074;19.920;2023-02-11T07:08:41;2.00;99.90
19920;DHT22;10122;50.074;19.920;2023-02-11T07:11:23;2.00;99.90
19920;DHT22;10122;50.074;19.920;2023-02-11T07:13:50;2.10;99.90
19920;DHT22;10122;50.074;19.920;2023-02-11T07:16:17;2.30;99.90
19920;DHT22;10122;50.074;19.920;2023-02-11T07:18:45;2.40;99.90
19920;DHT22;10122;50.074;19.920;2023-02-11T07:21:13;2.50;99.90
19920;DHT22;10122;50.074;19.920;2023-02-11T07:23:40;2.50;99.90
19920;DHT22;10122;50.074;19.920;2023-02-11T07:26:07;2.50;99.90
19920;DHT22;10122;50.074;19.920;2023-02-11T07:28:35;2.50;99.90
19920;DHT22;10122;50.074;19.920;2023-02-11T07:31:13;2.60;99.90
19920;DHT22;10122;50.074;19.920;2023-02-11T07:33:40;2.60;99.90
19920;DHT22;10122;50.074;19.920;2023-02-11T07:36:06;2.60;99.90
19920;DHT22;10122;50.074;19.920;2023-02-11T07:38:33;2.70;99.90
19920;DHT22;10122;50.074;19.920;2023-02-11T07:41:01;2.70;99.90
19920;DHT22;10122;50.074;19.920;2023-02-11T07:43:27;2.80;99.90
19920;DHT22;10122;50.074;19.920;2023-02-11T07:45:53;2.90;99.90
19920;DHT22;10122;50.074;19.920;2023-02-11T07:48:19;3.00;99.90
19920;DHT22;10122;50.074;19.920;2023-02-11T07:50:44;3.10;99.90
19920;DHT22;10122;50.074;19.920;2023-02-11T07:53:10;3.20;99.90
19920;DHT22;10122;50.074;19.920;2023-02-11T07:55:36;3.30;99.90
19920;DHT22;10122;50.074;19.920;2023-02-11T07:58:01;3.40;99.90
19920;DHT22;10122;50.074;19.920;2023-02-11T08:00:27;3.60;99.90
19920;DHT22;10122;50.074;19.920;2023-02-11T08:02:53;3.80;99.90
19920;DHT22;10122;50.074;19.920;2023-02-11T08:05:18;3.90;99.90
19920;DHT22;10122;50.074;19.920;2023-02-11T08:07:44;4.20;99.90
19920;DHT22;10122;50.074;19.920;2023-02-11T08:10:10;4.50;99.90
19920;DHT22;10122;50.074;19.920;2023-02-11T08:12:35;4.80;99.90
19920;DHT22;10122;50.074;19.920;2023-02-11T08:15:01;5.10;99.90
19920;DHT22;10122;50.074;19.920;2023-02-11T08:17:27;5.40;99.90
19920;DHT22;10122;50.074;19.920;2023-02-11T08:19:52;5.60;99.90
19920;DHT22;10122;50.074;19.920;2023-02-11T08:22:18;5.80;99.90
19920;DHT22;10122;50.074;19.920;2023-02-11T08:24:44;6.30;99.90
19920;DHT22;10122;50.074;19.920;2023-02-11T08:27:09;6.60;99.90
19920;DHT22;10122;50.074;19.920;2023-02-11T08:29:35;6.90;99.90
19920;DHT22;10122;50.074;19.920;2023-02-11T08:32:01;7.40;99.90
19920;DHT22;10122;50.074;19.920;2023-02-11T08:34:27;7.70;99.90
19920;DHT22;10122;50.074;19.920;2023-02-11T08:36:53;8.00;99.90
19920;DHT22;10122;50.074;19.920;2023-02-11T08:39:21;8.20;99.90
19920;DHT22;10122;50.074;19.920;2023-02-11T08:41:49;8.30;99.90
19920;DHT22;10122;50.074;19.920;2023-02-11T08:44:17;8.40;99.90
19920;DHT22;10122;50.074;19.920;2023-02-11T08:46:42;8.60;99.90
19920;DHT22;10122;50.074;19.920;2023-02-11T08:49:08;8.80;99.90
19920;DHT22;10122;50.074;19.920;2023-02-11T08:51:34;8.90;99.90
19920;DHT22;10122;50.074;19.920;2023-02-11T08:54:00;9.20;99.90
19920;DHT22;10122;50.074;19.920;2023-02-11T08:56:26;9.50;99.90
19920;DHT22;10122;50.074;19.920;2023-02-11T08:58:53;9.80;99.90
19920;DHT22;10122;50.074;19.920;2023-02-11T09:01:25;10.20;99.90
19920;DHT22;10122;50.074;19.920;2023-02-11T09:03:52;10.50;99.90
19920;DHT22;10122;50.074;19.920;2023-02-11T09:06:19;10.70;99.90
19920;DHT22;10122;50.074;19.920;2023-02-11T09:08:48;10.90;99.90
19920;DHT22;10122;50.074;19.920;2023-02-11T09:11:15;11.10;99.90
19920;DHT22;10122;50.074;19.920;2023-02-11T09:13:42;11.20;99.90
19920;DHT22;10122;50.074;19.920;2023-02-11T09:16:15;11.30;99.90
19920;DHT22;10122;50.074;19.920;2023-02-11T09:18:41;11.20;99.90
19920;DHT22;10122;50.074;19.920;2023-02-11T09:21:09;11.10;99.90
19920;DHT22;10122;50.074;19.920;2023-02-11T09:23:35;11.00;99.90
19920;DHT22;10122;50.074;19.920;2023-02-11T09:26:12;10.90;99.90
19920;DHT22;10122;50.074;19.920;2023-02-11T09:28:38;10.70;99.90
19920;DHT22;10122;50.074;19.920;2023-02-11T09:31:05;10.50;99.90
19920;DHT22;10122;50.074;19.920;2023-02-11T09:33:31;10.20;99.90
19920;DHT22;10122;50.074;19.920;2023-02-11T09:36:07;9.90;99.90
19920;DHT22;10122;50.074;19.920;2023-02-11T09:38:32;9.60;99.90
19920;DHT22;10122;50.074;19.920;2023-02-11T09:40:58;9.40;99.90
19920;DHT22;10122;50.074;19.920;2023-02-11T09:43:43;9.20;99.90
19920;DHT22;10122;50.074;19.920;2023-02-11T09:46:15;9.10;99.90
19920;DHT22;10122;50.074;19.920;2023-02-11T09:48:43;9.00;99.90
19920;DHT22;10122;50.074;19.920;2023-02-11T09:54:14;8.80;99.90
19920;DHT22;10122;50.074;19.920;2023-02-11T09:56:41;8.70;99.90
19920;DHT22;10122;50.074;19.920;2023-02-11T09:59:13;8.70;99.90
19920;DHT22;10122;50.074;19.920;2023-02-11T10:01:49;8.60;99.90
19920;DHT22;10122;50.074;19.920;2023-02-11T10:07:44;8.50;99.90
19920;DHT22;10122;50.074;19.920;2023-02-11T10:22:24;8.40;99.90
19920;DHT22;10122;50.074;19.920;2023-02-11T10:24:53;8.50;99.90
19920;DHT22;10122;50.074;19.920;2023-02-11T10:27:27;8.70;99.90
19920;DHT22;10122;50.074;19.920;2023-02-11T10:30:06;8.70;99.90
19920;DHT22;10122;50.074;19.920;2023-02-11T10:32:42;8.60;99.90
19920;DHT22;10122;50.074;19.920;2023-02-11T10:35:18;8.40;99.90
19920;DHT22;10122;50.074;19.920;2023-02-11T10:37:45;8.40;99.90
19920;DHT22;10122;50.074;19.920;2023-02-11T10:40:17;8.30;99.90
19920;DHT22;10122;50.074;19.920;2023-02-11T10:42:49;8.10;99.90
19920;DHT22;10122;50.074;19.920;2023-02-11T10:45:23;8.10;99.90
19920;DHT22;10122;50.074;19.920;2023-02-11T10:47:49;8.10;99.90
19920;DHT22;10122;50.074;19.920;2023-02-11T10:50:22;8.10;99.90
19920;DHT22;10122;50.074;19.920;2023-02-11T10:52:48;8.00;99.90
19920;DHT22;10122;50.074;19.920;2023-02-11T10:57:52;8.10;99.90
19920;DHT22;10122;50.074;19.920;2023-02-11T11:03:02;8.10;99.90
19920;DHT22;10122;50.074;19.920;2023-02-11T11:05:35;8.10;99.90
19920;DHT22;10122;50.074;19.920;2023-02-11T11:08:07;8.10;99.90
19920;DHT22;10122;50.074;19.920;2023-02-11T11:10:42;8.10;99.90
19920;DHT22;10122;50.074;19.920;2023-02-11T11:16:28;8.30;99.90
19920;DHT22;10122;50.074;19.920;2023-02-11T11:21:40;8.50;99.90
19920;DHT22;10122;50.074;19.920;2023-02-11T11:26:54;8.60;99.90
19920;DHT22;10122;50.074;19.920;2023-02-11T11:29:36;8.60;99.90
19920;DHT22;10122;50.074;19.920;2023-02-11T11:32:09;8.50;99.90
19920;DHT22;10122;50.074;19.920;2023-02-11T11:34:47;8.60;99.90
19920;DHT22;10122;50.074;19.920;2023-02-11T11:37:20;8.70;99.90
19920;DHT22;10122;50.074;19.920;2023-02-11T11:42:38;8.80;99.90
19920;DHT22;10122;50.074;19.920;2023-02-11T11:48:02;8.80;99.90
19920;DHT22;10122;50.074;19.920;2023-02-11T11:53:42;8.70;99.90
19920;DHT22;10122;50.074;19.920;2023-02-11T11:56:19;8.60;99.90
19920;DHT22;10122;50.074;19.920;2023-02-11T11:58:46;8.40;99.90
19920;DHT22;10122;50.074;19.920;2023-02-11T12:23:48;7.70;99.90
19920;DHT22;10122;50.074;19.920;2023-02-11T12:26:23;7.60;99.90
19920;DHT22;10122;50.074;19.920;2023-02-11T12:39:44;7.40;99.90
19920;DHT22;10122;50.074;19.920;2023-02-11T13:02:10;7.10;99.90
19920;DHT22;10122;50.074;19.920;2023-02-11T13:04:43;7.00;99.90
19920;DHT22;10122;50.074;19.920;2023-02-11T13:07:38;7.00;99.90
19920;DHT22;10122;50.074;19.920;2023-02-11T13:10:25;7.00;99.90
19920;DHT22;10122;50.074;19.920;2023-02-11T13:12:54;7.00;99.90
19920;DHT22;10122;50.074;19.920;2023-02-11T13:22:02;6.90;99.90
19920;DHT22;10122;50.074;19.920;2023-02-11T13:27:36;6.70;99.90
19920;DHT22;10122;50.074;19.920;2023-02-11T13:35:37;6.60;99.90
19920;DHT22;10122;50.074;19.920;2023-02-11T13:38:19;6.60;99.90
19920;DHT22;10122;50.074;19.920;2023-02-11T13:44:04;6.60;99.90
19920;DHT22;10122;50.074;19.920;2023-02-11T13:49:29;6.60;99.90
19920;DHT22;10122;50.074;19.920;2023-02-11T13:51:56;6.60;99.90
19920;DHT22;10122;50.074;19.920;2023-02-11T13:54:31;6.50;99.90
19920;DHT22;10122;50.074;19.920;2023-02-11T14:02:23;6.50;99.90
19920;DHT22;10122;50.074;19.920;2023-02-11T14:16:15;6.40;99.90
19920;DHT22;10122;50.074;19.920;2023-02-11T14:21:18;6.20;99.90
19920;DHT22;10122;50.074;19.920;2023-02-11T14:23:45;6.00;99.90
19920;DHT22;10122;50.074;19.920;2023-02-11T14:28:59;5.70;99.90
19920;DHT22;10122;50.074;19.920;2023-02-11T14:31:43;5.60;99.90
19920;DHT22;10122;50.074;19.920;2023-02-11T14:42:25;5.90;99.90
19920;DHT22;10122;50.074;19.920;2023-02-11T14:44:54;5.90;99.90
19920;DHT22;10122;50.074;19.920;2023-02-11T14:47:33;6.00;99.90
19920;DHT22;10122;50.074;19.920;2023-02-11T14:50:01;6.00;99.90
19920;DHT22;10122;50.074;19.920;2023-02-11T14:52:29;6.00;99.90
19920;DHT22;10122;50.074;19.920;2023-02-11T14:55:26;6.00;99.90
19920;DHT22;10122;50.074;19.920;2023-02-11T14:58:20;6.00;99.90
19920;DHT22;10122;50.074;19.920;2023-02-11T15:01:06;6.00;99.90
19920;DHT22;10122;50.074;19.920;2023-02-11T15:03:48;6.00;99.90
19920;DHT22;10122;50.074;19.920;2023-02-11T15:06:20;6.00;99.90
19920;DHT22;10122;50.074;19.920;2023-02-11T15:09:12;6.00;99.90
19920;DHT22;10122;50.074;19.920;2023-02-11T15:11:40;6.00;99.90
19920;DHT22;10122;50.074;19.920;2023-02-11T15:14:10;6.00;99.90
19920;DHT22;10122;50.074;19.920;2023-02-11T15:16:42;5.90;99.90
19920;DHT22;10122;50.074;19.920;2023-02-11T15:19:16;5.90;99.90
19920;DHT22;10122;50.074;19.920;2023-02-11T15:21:44;5.90;99.90
19920;DHT22;10122;50.074;19.920;2023-02-11T15:24:31;5.80;99.90
19920;DHT22;10122;50.074;19.920;2023-02-11T15:27:08;5.80;99.90
19920;DHT22;10122;50.074;19.920;2023-02-11T15:29:44;5.70;99.90
19920;DHT22;10122;50.074;19.920;2023-02-11T15:32:18;5.70;99.90
19920;DHT22;10122;50.074;19.920;2023-02-11T15:34:46;5.60;99.90
19920;DHT22;10122;50.074;19.920;2023-02-11T15:39:45;5.60;99.90
19920;DHT22;10122;50.074;19.920;2023-02-11T15:42:28;5.60;99.90
19920;DHT22;10122;50.074;19.920;2023-02-11T15:47:41;5.40;99.90
19920;DHT22;10122;50.074;19.920;2023-02-11T15:50:37;5.40;99.90
19920;DHT22;10122;50.074;19.920;2023-02-11T15:55:51;5.30;99.90
19920;DHT22;10122;50.074;19.920;2023-02-11T15:58:18;5.40;99.90
19920;DHT22;10122;50.074;19.920;2023-02-11T16:00:49;5.30;99.90
19920;DHT22;10122;50.074;19.920;2023-02-11T16:03:26;5.30;99.90
19920;DHT22;10122;50.074;19.920;2023-02-11T16:08:41;5.20;99.90
19920;DHT22;10122;50.074;19.920;2023-02-11T16:11:34;5.20;99.90
19920;DHT22;10122;50.074;19.920;2023-02-11T16:14:01;5.20;99.90
19920;DHT22;10122;50.074;19.920;2023-02-11T16:16:45;5.20;99.90
19920;DHT22;10122;50.074;19.920;2023-02-11T16:19:17;5.20;99.90
19920;DHT22;10122;50.074;19.920;2023-02-11T16:21:44;5.10;99.90
19920;DHT22;10122;50.074;19.920;2023-02-11T16:24:28;5.10;99.90
19920;DHT22;10122;50.074;19.920;2023-02-11T16:27:01;5.10;99.90
19920;DHT22;10122;50.074;19.920;2023-02-11T16:29:32;5.10;99.90
19920;DHT22;10122;50.074;19.920;2023-02-11T16:32:13;5.10;99.90
19920;DHT22;10122;50.074;19.920;2023-02-11T16:34:40;5.10;99.90
19920;DHT22;10122;50.074;19.920;2023-02-11T16:37:06;5.10;99.90
19920;DHT22;10122;50.074;19.920;2023-02-11T16:39:32;5.00;99.90
19920;DHT22;10122;50.074;19.920;2023-02-11T16:41:58;5.00;99.90
19920;DHT22;10122;50.074;19.920;2023-02-11T16:44:25;5.00;99.90
19920;DHT22;10122;50.074;19.920;2023-02-11T16:46:52;5.00;99.90
19920;DHT22;10122;50.074;19.920;2023-02-11T16:49:35;5.00;99.90
19920;DHT22;10122;50.074;19.920;2023-02-11T16:52:05;5.00;99.90
19920;DHT22;10122;50.074;19.920;2023-02-11T16:54:31;4.90;99.90
19920;DHT22;10122;50.074;19.920;2023-02-11T16:56:57;4.90;99.90
19920;DHT22;10122;50.074;19.920;2023-02-11T16:59:23;4.90;99.90
19920;DHT22;10122;50.074;19.920;2023-02-11T17:01:51;4.90;99.90
19920;DHT22;10122;50.074;19.920;2023-02-11T17:04:24;4.90;99.90
19920;DHT22;10122;50.074;19.920;2023-02-11T17:06:50;4.90;99.90
19920;DHT22;10122;50.074;19.920;2023-02-11T17:09:21;4.90;99.90
19920;DHT22;10122;50.074;19.920;2023-02-11T17:11:47;4.90;99.90
19920;DHT22;10122;50.074;19.920;2023-02-11T17:14:13;4.90;99.90
19920;DHT22;10122;50.074;19.920;2023-02-11T17:16:40;4.90;99.90
19920;DHT22;10122;50.074;19.920;2023-02-11T17:19:05;4.90;99.90
19920;DHT22;10122;50.074;19.920;2023-02-11T17:21:31;4.90;99.90
19920;DHT22;10122;50.074;19.920;2023-02-11T17:23:58;4.90;99.90
19920;DHT22;10122;50.074;19.920;2023-02-11T17:26:24;4.90;99.90
19920;DHT22;10122;50.074;19.920;2023-02-11T17:28:50;4.90;99.90
19920;DHT22;10122;50.074;19.920;2023-02-11T17:31:15;4.80;99.90
19920;DHT22;10122;50.074;19.920;2023-02-11T17:33:42;4.80;99.90
19920;DHT22;10122;50.074;19.920;2023-02-11T17:36:08;4.80;99.90
19920;DHT22;10122;50.074;19.920;2023-02-11T17:38:35;4.80;99.90
19920;DHT22;10122;50.074;19.920;2023-02-11T17:41:02;4.80;99.90
19920;DHT22;10122;50.074;19.920;2023-02-11T17:43:29;4.90;99.90
19920;DHT22;10122;50.074;19.920;2023-02-11T17:45:55;4.80;99.90
19920;DHT22;10122;50.074;19.920;2023-02-11T17:48:21;4.80;99.90
19920;DHT22;10122;50.074;19.920;2023-02-11T17:50:47;4.80;99.90
19920;DHT22;10122;50.074;19.920;2023-02-11T17:53:13;4.80;99.90
19920;DHT22;10122;50.074;19.920;2023-02-11T17:55:39;4.80;99.90
19920;DHT22;10122;50.074;19.920;2023-02-11T17:58:05;4.80;99.90
19920;DHT22;10122;50.074;19.920;2023-02-11T18:00:31;4.80;99.90
19920;DHT22;10122;50.074;19.920;2023-02-11T18:02:57;4.80;99.90
19920;DHT22;10122;50.074;19.920;2023-02-11T18:05:27;4.80;99.90
19920;DHT22;10122;50.074;19.920;2023-02-11T18:07:54;4.80;99.90
19920;DHT22;10122;50.074;19.920;2023-02-11T18:10:20;4.80;99.90
19920;DHT22;10122;50.074;19.920;2023-02-11T18:12:46;4.70;99.90
19920;DHT22;10122;50.074;19.920;2023-02-11T18:15:11;4.70;99.90
19920;DHT22;10122;50.074;19.920;2023-02-11T18:17:37;4.70;99.90
19920;DHT22;10122;50.074;19.920;2023-02-11T18:20:03;4.70;99.90
19920;DHT22;10122;50.074;19.920;2023-02-11T18:22:29;4.80;99.90
19920;DHT22;10122;50.074;19.920;2023-02-11T18:25:00;4.80;99.90
19920;DHT22;10122;50.074;19.920;2023-02-11T18:27:26;4.80;99.90
19920;DHT22;10122;50.074;19.920;2023-02-11T18:29:52;4.80;99.90
19920;DHT22;10122;50.074;19.920;2023-02-11T18:32:18;4.80;99.90
19920;DHT22;10122;50.074;19.920;2023-02-11T18:34:43;4.80;99.90
19920;DHT22;10122;50.074;19.920;2023-02-11T18:37:09;4.80;99.90
19920;DHT22;10122;50.074;19.920;2023-02-11T18:39:36;4.80;99.90
19920;DHT22;10122;50.074;19.920;2023-02-11T18:42:01;4.80;99.90
19920;DHT22;10122;50.074;19.920;2023-02-11T18:44:27;4.70;99.90
19920;DHT22;10122;50.074;19.920;2023-02-11T18:46:53;4.70;99.90
19920;DHT22;10122;50.074;19.920;2023-02-11T18:49:19;4.80;99.90
19920;DHT22;10122;50.074;19.920;2023-02-11T18:51:45;4.80;99.90
19920;DHT22;10122;50.074;19.920;2023-02-11T18:54:12;4.80;99.90
19920;DHT22;10122;50.074;19.920;2023-02-11T18:56:38;4.80;99.90
19920;DHT22;10122;50.074;19.920;2023-02-11T18:59:04;4.80;99.90
19920;DHT22;10122;50.074;19.920;2023-02-11T19:01:30;4.80;99.90
19920;DHT22;10122;50.074;19.920;2023-02-11T19:03:59;4.80;99.90
19920;DHT22;10122;50.074;19.920;2023-02-11T19:06:37;5.00;99.90